Terminal Aerodrome Forecast
Issued by NWS Twin Cities, MN

Home | Current Version | Previous Version | Text Only | Print | Product List | Glossary Off
Versions: 1 2 3 4 5 6 7 8 9 10 11 12 13 14 15 16 17 18 19 20 21 22 23 24 25

000
FTUS43 KMPX 202340
TAFMSP
TAF
KMSP 202340Z 2100/2206 08008KT 3SM -DZ BR OVC007
     FM210900 12007KT 1SM -DZ BR OVC005
     FM211400 27012KT P6SM BKN007 OVC015
     FM211800 28012G20KT P6SM OVC015
     FM212200 28014G22KT P6SM VCSH BKN025
     FM220300 27009KT P6SM SCT025 BKN050=

USA.gov is the U.S. government's official web portal to all federal, state and local government web resources and services.